Time;durP1;ratioP1;P1;durP2;ratioP2;P2;SDS_P1;SDS_P2;PMS_P1;PMS_P2;Temp;Humidity;BMP_temperature;BMP_pressure;BME280_temperature;BME280_humidity;BME280_pressure;Samples;Min_cycle;Max_cycle;Signal;HPM_P1;HPM_P2
2021/08/04 00:00:39;;;;;;;11.73;3.72;;;;;;;;;;4993430;28;20235;-56
2021/08/04 00:03:04;;;;;;;17.27;4.00;;;;;;;;;;4986791;28;20180;-56
2021/08/04 00:05:29;;;;;;;5.57;3.67;;;;;;;;;;4986161;28;20259;-56
2021/08/04 00:07:54;;;;;;;6.88;3.33;;;;;;;;;;4990619;28;20286;-55
2021/08/04 00:10:20;;;;;;;6.10;3.50;;;;;;;;;;4986510;28;20208;-56
2021/08/04 00:12:46;;;;;;;5.32;3.45;;;;;;;;;;4988009;28;20187;-56
2021/08/04 00:15:12;;;;;;;4.78;3.58;;;;;;;;;;4989694;28;20180;-55
2021/08/04 00:17:37;;;;;;;8.00;3.67;;;;;;;;;;4991675;28;20195;-55
2021/08/04 00:20:04;;;;;;;9.07;3.70;;;;;;;;;;4986174;28;20212;-56
2021/08/04 00:22:29;;;;;;;12.63;3.45;;;;;;;;;;4986369;28;20196;-55
2021/08/04 00:24:54;;;;;;;11.32;3.92;;;;;;;;;;4973484;28;20266;-56
2021/08/04 00:27:19;;;;;;;7.78;3.88;;;;;;;;;;4987768;28;20225;-55
2021/08/04 00:29:45;;;;;;;7.78;3.97;;;;;;;;;;4984643;28;20243;-55
2021/08/04 00:32:10;;;;;;;11.98;3.38;;;;;;;;;;4987562;28;20282;-56
2021/08/04 00:34:35;;;;;;;12.38;3.60;;;;;;;;;;4989716;28;20199;-56
2021/08/04 00:37:00;;;;;;;9.82;3.80;;;;;;;;;;4981306;28;20192;-55
2021/08/04 00:39:25;;;;;;;7.22;3.90;;;;;;;;;;4985984;28;20184;-55
2021/08/04 00:41:51;;;;;;;6.00;3.77;;;;;;;;;;4990338;28;20208;-55
2021/08/04 00:44:16;;;;;;;20.40;3.78;;;;;;;;;;4987613;28;20423;-56
2021/08/04 00:46:42;;;;;;;5.10;3.22;;;;;;;;;;4987567;28;20212;-56
2021/08/04 00:49:09;;;;;;;4.43;3.20;;;;;;;;;;4992192;28;20176;-55
2021/08/04 00:51:34;;;;;;;7.00;3.00;;;;;;;;;;4983762;28;20254;-56
2021/08/04 00:54:01;;;;;;;14.00;3.40;;;;;;;;;;4969478;28;20211;-55
2021/08/04 00:56:26;;;;;;;3.95;3.00;;;;;;;;;;4989634;28;20195;-56
2021/08/04 00:58:52;;;;;;;9.93;3.95;;;;;;;;;;4987515;28;20185;-55
2021/08/04 01:01:20;;;;;;;3.97;3.13;;;;;;;;;;4987034;28;20238;-56
2021/08/04 01:03:46;;;;;;;7.07;3.42;;;;;;;;;;4989685;28;20660;-55
2021/08/04 01:06:25;;;;;;;6.18;3.40;;;;;;;;;;4988519;28;20215;-56
2021/08/04 01:08:54;;;;;;;4.97;3.58;;;;;;;;;;4988977;28;20176;-56
2021/08/04 01:11:20;;;;;;;7.32;3.42;;;;;;;;;;4988721;28;20682;-55
2021/08/04 01:13:47;;;;;;;6.20;3.13;;;;;;;;;;4985251;28;20180;-56
2021/08/04 01:16:17;;;;;;;4.63;2.92;;;;;;;;;;4983795;28;20172;-55
2021/08/04 01:18:45;;;;;;;6.07;3.63;;;;;;;;;;4987677;28;20195;-56
2021/08/04 01:21:11;;;;;;;5.22;3.30;;;;;;;;;;4986745;28;20208;-56
2021/08/04 01:23:43;;;;;;;5.53;3.20;;;;;;;;;;4986652;28;20181;-56
2021/08/04 01:26:11;;;;;;;6.43;3.72;;;;;;;;;;4988225;28;20765;-56
2021/08/04 01:28:42;;;;;;;8.77;3.15;;;;;;;;;;4983240;28;20649;-56
2021/08/04 01:31:09;;;;;;;4.25;3.22;;;;;;;;;;4986805;28;20212;-55
2021/08/04 01:33:37;;;;;;;5.10;3.47;;;;;;;;;;4988037;28;20227;-56
2021/08/04 01:36:03;;;;;;;8.27;3.33;;;;;;;;;;4986475;28;20275;-56
2021/08/04 01:38:29;;;;;;;7.13;3.90;;;;;;;;;;4988532;28;20319;-55
2021/08/04 01:40:55;;;;;;;7.25;3.35;;;;;;;;;;4986904;28;20207;-55
2021/08/04 01:43:22;;;;;;;11.68;3.30;;;;;;;;;;4991366;28;20172;-56
2021/08/04 01:45:47;;;;;;;4.15;3.30;;;;;;;;;;4994146;28;20284;-55
2021/08/04 01:48:13;;;;;;;5.10;3.10;;;;;;;;;;4991790;28;20345;-55
2021/08/04 01:50:38;;;;;;;10.55;3.20;;;;;;;;;;4990352;28;20218;-56
2021/08/04 01:53:04;;;;;;;6.60;3.38;;;;;;;;;;4998367;28;20633;-56
2021/08/04 01:55:29;;;;;;;8.70;3.67;;;;;;;;;;4992368;28;20210;-57
2021/08/04 01:57:55;;;;;;;7.22;3.65;;;;;;;;;;4987549;28;20710;-55
2021/08/04 02:00:20;;;;;;;5.93;3.50;;;;;;;;;;4989568;28;20232;-56
2021/08/04 02:02:45;;;;;;;9.52;3.55;;;;;;;;;;4985038;28;20246;-56
2021/08/04 02:05:10;;;;;;;5.53;3.75;;;;;;;;;;4987673;28;20197;-56
2021/08/04 02:07:36;;;;;;;12.32;4.85;;;;;;;;;;4975130;28;20223;-55
2021/08/04 02:10:03;;;;;;;6.70;4.35;;;;;;;;;;4990867;28;20181;-55
2021/08/04 02:12:29;;;;;;;6.15;4.10;;;;;;;;;;4991209;28;20176;-55
2021/08/04 02:14:58;;;;;;;4.40;4.00;;;;;;;;;;4993190;28;20533;-55
2021/08/04 02:17:27;;;;;;;6.43;4.30;;;;;;;;;;4978058;28;20188;-56
2021/08/04 02:19:58;;;;;;;7.20;4.10;;;;;;;;;;4990188;28;20853;-56
2021/08/04 02:22:26;;;;;;;6.20;3.60;;;;;;;;;;4991754;28;20188;-55
2021/08/04 02:25:14;;;;;;;6.40;3.78;;;;;;;;;;4988880;28;20188;-55
2021/08/04 02:27:41;;;;;;;6.10;3.80;;;;;;;;;;4981868;28;20306;-56
2021/08/04 02:30:07;;;;;;;4.32;3.70;;;;;;;;;;4984981;28;20189;-55
2021/08/04 02:32:33;;;;;;;5.53;3.47;;;;;;;;;;4986851;28;20208;-56
2021/08/04 02:34:58;;;;;;;4.93;3.97;;;;;;;;;;4993047;28;20180;-56
2021/08/04 02:37:24;;;;;;;6.38;3.80;;;;;;;;;;4991202;28;20180;-55
2021/08/04 02:39:49;;;;;;;8.70;4.18;;;;;;;;;;4985919;28;20188;-56
2021/08/04 02:42:14;;;;;;;5.97;4.15;;;;;;;;;;4977286;28;20692;-55
2021/08/04 02:44:39;;;;;;;4.82;4.20;;;;;;;;;;4989525;28;20722;-55
2021/08/04 02:47:05;;;;;;;7.85;3.80;;;;;;;;;;4993427;28;20227;-56
2021/08/04 02:49:30;;;;;;;6.40;3.65;;;;;;;;;;4991197;28;20207;-56
2021/08/04 02:51:56;;;;;;;6.38;3.47;;;;;;;;;;4987454;28;20304;-56
2021/08/04 02:54:21;;;;;;;3.80;3.35;;;;;;;;;;4994650;28;20260;-57
2021/08/04 02:56:46;;;;;;;4.43;3.20;;;;;;;;;;4992165;28;20191;-56
2021/08/04 02:59:11;;;;;;;6.03;3.80;;;;;;;;;;4991002;28;20193;-56
2021/08/04 03:01:37;;;;;;;3.88;3.58;;;;;;;;;;4990127;28;20232;-56
2021/08/04 03:04:02;;;;;;;3.95;3.38;;;;;;;;;;4987810;28;20188;-56
2021/08/04 03:06:27;;;;;;;5.25;4.03;;;;;;;;;;4990377;28;20224;-56
2021/08/04 03:08:52;;;;;;;6.22;3.80;;;;;;;;;;4991038;28;20180;-56
2021/08/04 03:11:18;;;;;;;5.88;3.60;;;;;;;;;;4990588;28;20239;-56
2021/08/04 03:13:43;;;;;;;4.10;3.50;;;;;;;;;;4988217;28;20675;-56
2021/08/04 03:16:08;;;;;;;7.45;3.80;;;;;;;;;;4990696;28;20211;-55
2021/08/04 03:18:33;;;;;;;3.80;3.13;;;;;;;;;;4989012;28;20874;-57
2021/08/04 03:20:59;;;;;;;3.40;3.10;;;;;;;;;;4974424;28;20298;-57
2021/08/04 03:23:24;;;;;;;5.30;3.80;;;;;;;;;;4986708;28;20211;-56
2021/08/04 03:25:49;;;;;;;7.45;3.92;;;;;;;;;;4989790;28;20198;-56
2021/08/04 03:28:14;;;;;;;6.43;3.50;;;;;;;;;;4987872;28;20181;-56
2021/08/04 03:30:39;;;;;;;6.65;2.92;;;;;;;;;;4988107;28;20215;-55
2021/08/04 03:33:04;;;;;;;6.88;3.63;;;;;;;;;;4985604;28;20191;-55
2021/08/04 03:35:30;;;;;;;3.50;3.20;;;;;;;;;;4988325;28;20185;-55
2021/08/04 03:37:55;;;;;;;5.68;3.55;;;;;;;;;;4987757;28;20568;-55
2021/08/04 03:40:20;;;;;;;5.07;3.70;;;;;;;;;;4990312;28;21112;-56
2021/08/04 03:42:46;;;;;;;5.97;4.30;;;;;;;;;;4990306;28;20227;-57
2021/08/04 03:45:11;;;;;;;5.78;3.55;;;;;;;;;;4986616;28;20226;-56
2021/08/04 03:47:36;;;;;;;3.63;3.25;;;;;;;;;;4969360;28;20673;-56
2021/08/04 03:50:02;;;;;;;5.13;3.63;;;;;;;;;;4990949;28;20180;-56
2021/08/04 03:52:27;;;;;;;5.55;3.33;;;;;;;;;;4982788;28;20183;-56
2021/08/04 03:54:52;;;;;;;4.03;3.22;;;;;;;;;;4987245;28;20184;-55
2021/08/04 03:57:17;;;;;;;5.05;3.70;;;;;;;;;;4990406;28;20184;-55
2021/08/04 03:59:42;;;;;;;5.35;3.65;;;;;;;;;;4989021;28;20195;-56
2021/08/04 04:02:08;;;;;;;5.88;3.83;;;;;;;;;;4989639;28;20625;-56
2021/08/04 04:04:33;;;;;;;5.75;3.22;;;;;;;;;;4989610;28;20275;-56
2021/08/04 04:06:58;;;;;;;7.93;3.63;;;;;;;;;;4985097;28;20200;-56
2021/08/04 04:09:23;;;;;;;4.55;3.55;;;;;;;;;;4991367;28;20180;-56
2021/08/04 04:11:48;;;;;;;4.95;3.35;;;;;;;;;;4986758;28;20288;-55
2021/08/04 04:14:14;;;;;;;5.45;3.53;;;;;;;;;;4972060;28;20187;-55
2021/08/04 04:16:39;;;;;;;4.20;3.80;;;;;;;;;;4991076;28;20221;-55
2021/08/04 04:19:04;;;;;;;3.88;3.20;;;;;;;;;;4988767;28;20191;-55
2021/08/04 04:21:31;;;;;;;15.68;3.75;;;;;;;;;;4970025;28;20266;-55
2021/08/04 04:23:56;;;;;;;6.10;3.50;;;;;;;;;;4988215;28;20184;-55
2021/08/04 04:26:21;;;;;;;9.07;3.50;;;;;;;;;;4988120;28;20196;-56
2021/08/04 04:28:46;;;;;;;7.85;3.75;;;;;;;;;;4984240;28;20199;-56
2021/08/04 04:31:11;;;;;;;4.65;3.33;;;;;;;;;;4988594;28;20227;-56
2021/08/04 04:33:36;;;;;;;6.32;3.88;;;;;;;;;;4987795;28;20225;-56
2021/08/04 04:36:02;;;;;;;6.87;3.70;;;;;;;;;;4972116;28;20176;-56
2021/08/04 04:38:27;;;;;;;5.78;3.90;;;;;;;;;;4986729;28;20449;-56
2021/08/04 04:40:52;;;;;;;6.25;3.95;;;;;;;;;;4989433;28;20204;-56
2021/08/04 04:43:17;;;;;;;7.20;3.88;;;;;;;;;;4988425;28;20759;-56
2021/08/04 04:45:43;;;;;;;4.38;3.55;;;;;;;;;;4988566;28;20180;-55
2021/08/04 04:48:08;;;;;;;7.18;4.03;;;;;;;;;;4981670;28;20238;-55
2021/08/04 04:50:34;;;;;;;5.28;4.20;;;;;;;;;;4987947;28;20219;-56
2021/08/04 04:52:59;;;;;;;6.20;3.97;;;;;;;;;;4970222;28;20657;-56
2021/08/04 04:55:24;;;;;;;5.32;3.75;;;;;;;;;;4984960;28;20181;-55
2021/08/04 04:57:50;;;;;;;4.43;3.92;;;;;;;;;;4987577;28;20243;-56
2021/08/04 05:00:15;;;;;;;5.65;4.05;;;;;;;;;;4986018;28;20230;-56
2021/08/04 05:02:40;;;;;;;6.47;3.63;;;;;;;;;;4986699;28;20613;-56
2021/08/04 05:05:06;;;;;;;8.63;4.00;;;;;;;;;;4988289;28;20245;-56
2021/08/04 05:07:31;;;;;;;4.22;3.83;;;;;;;;;;4987887;28;20210;-56
2021/08/04 05:09:57;;;;;;;8.07;4.50;;;;;;;;;;4990186;28;20180;-56
2021/08/04 05:12:22;;;;;;;11.80;4.60;;;;;;;;;;4988371;28;20631;-56
2021/08/04 05:14:47;;;;;;;5.03;4.50;;;;;;;;;;4993529;28;20196;-56
2021/08/04 05:17:13;;;;;;;4.20;3.90;;;;;;;;;;4993691;28;20188;-56
2021/08/04 05:19:38;;;;;;;9.35;4.15;;;;;;;;;;4995349;28;20179;-56
2021/08/04 05:22:04;;;;;;;5.30;4.57;;;;;;;;;;4991820;28;20195;-55
2021/08/04 05:24:29;;;;;;;5.72;3.88;;;;;;;;;;4996458;28;20668;-55
2021/08/04 05:26:54;;;;;;;5.40;3.95;;;;;;;;;;4992367;28;20207;-56
2021/08/04 05:29:19;;;;;;;3.60;3.30;;;;;;;;;;4992952;28;20219;-56
2021/08/04 05:31:44;;;;;;;3.97;3.58;;;;;;;;;;4993589;28;20204;-56
2021/08/04 05:34:09;;;;;;;5.95;4.47;;;;;;;;;;4989847;28;20179;-56
2021/08/04 05:36:35;;;;;;;5.82;4.03;;;;;;;;;;4988994;28;20548;-56
2021/08/04 05:39:00;;;;;;;10.23;3.80;;;;;;;;;;4991548;28;20598;-56
2021/08/04 05:41:25;;;;;;;7.32;3.72;;;;;;;;;;4990626;28;20702;-57
2021/08/04 05:43:50;;;;;;;5.75;3.80;;;;;;;;;;4986692;28;20181;-56
2021/08/04 05:46:16;;;;;;;7.57;3.75;;;;;;;;;;4988352;28;20220;-56
2021/08/04 05:48:41;;;;;;;6.32;4.00;;;;;;;;;;4991170;28;20189;-56
2021/08/04 05:51:06;;;;;;;8.45;4.20;;;;;;;;;;4996517;28;20283;-55
2021/08/04 05:53:31;;;;;;;8.75;3.78;;;;;;;;;;4990041;28;20833;-56
2021/08/04 05:55:56;;;;;;;5.25;3.75;;;;;;;;;;4976137;28;20185;-56
2021/08/04 05:58:22;;;;;;;7.70;3.60;;;;;;;;;;4984419;28;20231;-56
2021/08/04 06:00:47;;;;;;;4.30;3.90;;;;;;;;;;4985173;28;20204;-56
2021/08/04 06:03:12;;;;;;;4.43;3.78;;;;;;;;;;4990005;28;20415;-56
2021/08/04 06:05:40;;;;;;;4.37;3.70;;;;;;;;;;4990014;28;20259;-55
2021/08/04 06:08:07;;;;;;;11.20;4.10;;;;;;;;;;4989723;28;20529;-56
2021/08/04 06:10:32;;;;;;;7.47;3.85;;;;;;;;;;4978380;28;20220;-56
2021/08/04 06:12:58;;;;;;;6.57;4.53;;;;;;;;;;4986880;28;20181;-55
2021/08/04 06:15:23;;;;;;;8.43;4.57;;;;;;;;;;4983443;28;20180;-56
2021/08/04 06:17:48;;;;;;;4.32;3.92;;;;;;;;;;4984713;28;20204;-56
2021/08/04 06:20:13;;;;;;;6.32;3.83;;;;;;;;;;4983322;28;20691;-56
2021/08/04 06:22:38;;;;;;;9.43;4.30;;;;;;;;;;4988782;28;20188;-56
2021/08/04 06:25:04;;;;;;;4.90;4.20;;;;;;;;;;4986835;28;20302;-55
2021/08/04 06:27:29;;;;;;;9.10;3.70;;;;;;;;;;4991838;28;20304;-56
2021/08/04 06:29:54;;;;;;;8.70;4.30;;;;;;;;;;4988586;28;20191;-56
2021/08/04 06:32:19;;;;;;;4.68;3.97;;;;;;;;;;4994178;28;20176;-56
2021/08/04 06:34:45;;;;;;;22.50;4.50;;;;;;;;;;4990265;28;20204;-56
2021/08/04 06:37:10;;;;;;;8.38;4.15;;;;;;;;;;4993371;28;20187;-57
2021/08/04 06:39:35;;;;;;;5.55;4.18;;;;;;;;;;4989898;28;20191;-56
2021/08/04 06:42:01;;;;;;;6.05;3.78;;;;;;;;;;4988885;28;20200;-56
2021/08/04 06:44:27;;;;;;;8.45;4.10;;;;;;;;;;4990346;28;20545;-56
2021/08/04 06:46:56;;;;;;;6.22;4.07;;;;;;;;;;4974238;28;20615;-55
2021/08/04 06:49:21;;;;;;;5.13;3.63;;;;;;;;;;4986691;28;20680;-56
2021/08/04 06:51:46;;;;;;;5.35;4.03;;;;;;;;;;4997318;28;20216;-55
2021/08/04 06:54:12;;;;;;;4.17;3.67;;;;;;;;;;4990831;28;20224;-55
2021/08/04 06:56:37;;;;;;;5.53;3.70;;;;;;;;;;4990575;28;20915;-55
2021/08/04 06:59:02;;;;;;;4.73;3.50;;;;;;;;;;4994975;28;20411;-56
2021/08/04 07:01:27;;;;;;;4.65;3.08;;;;;;;;;;4976418;28;20449;-55
2021/08/04 07:03:52;;;;;;;7.53;3.20;;;;;;;;;;4990136;28;20188;-55
2021/08/04 07:06:18;;;;;;;8.50;3.75;;;;;;;;;;4983404;28;20842;-56
2021/08/04 07:08:43;;;;;;;5.65;3.30;;;;;;;;;;4989995;28;20601;-56
2021/08/04 07:11:08;;;;;;;4.03;3.17;;;;;;;;;;4980771;28;20197;-56
2021/08/04 07:13:34;;;;;;;6.30;3.83;;;;;;;;;;4987079;28;20423;-56
2021/08/04 07:15:59;;;;;;;7.40;3.25;;;;;;;;;;4991022;28;20180;-56
2021/08/04 07:18:24;;;;;;;6.30;3.42;;;;;;;;;;4985403;28;20172;-56
2021/08/04 07:20:50;;;;;;;9.47;3.40;;;;;;;;;;4982708;28;20213;-56
2021/08/04 07:23:15;;;;;;;8.30;3.67;;;;;;;;;;4982420;28;20271;-56
2021/08/04 07:25:41;;;;;;;6.72;3.40;;;;;;;;;;4980525;28;20751;-56
2021/08/04 07:28:06;;;;;;;7.55;3.47;;;;;;;;;;4983418;28;20299;-56
2021/08/04 07:30:31;;;;;;;4.22;3.70;;;;;;;;;;4983302;28;20473;-56
2021/08/04 07:32:57;;;;;;;4.37;3.43;;;;;;;;;;4991296;28;20266;-56
2021/08/04 07:35:22;;;;;;;9.93;3.88;;;;;;;;;;4989514;28;20851;-56
2021/08/04 07:37:47;;;;;;;6.25;3.85;;;;;;;;;;4987971;28;20255;-56
2021/08/04 07:40:13;;;;;;;6.00;3.72;;;;;;;;;;4990571;28;20218;-56
2021/08/04 07:42:38;;;;;;;4.20;3.47;;;;;;;;;;4990000;28;20226;-56
2021/08/04 07:45:04;;;;;;;9.63;3.60;;;;;;;;;;4992267;28;20864;-56
2021/08/04 07:47:29;;;;;;;4.57;3.25;;;;;;;;;;4986717;28;20635;-55
2021/08/04 07:49:54;;;;;;;6.77;3.63;;;;;;;;;;4972810;28;20652;-55
2021/08/04 07:52:20;;;;;;;6.43;3.77;;;;;;;;;;4990555;28;20424;-55
2021/08/04 07:54:45;;;;;;;3.87;3.50;;;;;;;;;;4990118;28;20438;-55
2021/08/04 07:57:10;;;;;;;3.70;3.30;;;;;;;;;;4987523;28;20279;-56
2021/08/04 07:59:35;;;;;;;5.60;3.57;;;;;;;;;;4991690;28;20442;-56
2021/08/04 08:02:00;;;;;;;3.87;3.47;;;;;;;;;;4988692;28;20207;-55
2021/08/04 08:04:26;;;;;;;3.25;2.95;;;;;;;;;;4978817;28;20427;-56
2021/08/04 08:06:51;;;;;;;5.38;3.28;;;;;;;;;;4994439;28;20282;-56
2021/08/04 08:09:21;;;;;;;4.47;3.45;;;;;;;;;;4987922;28;20275;-56
2021/08/04 08:11:46;;;;;;;5.32;3.03;;;;;;;;;;4985858;28;20273;-56
2021/08/04 08:14:11;;;;;;;3.70;3.40;;;;;;;;;;4986334;28;20184;-57
2021/08/04 08:16:37;;;;;;;5.50;3.53;;;;;;;;;;4983110;28;20252;-56
2021/08/04 08:19:02;;;;;;;4.07;3.67;;;;;;;;;;4992474;28;20282;-56
2021/08/04 08:21:27;;;;;;;3.83;3.43;;;;;;;;;;4989119;28;20461;-56
2021/08/04 08:23:52;;;;;;;5.03;3.40;;;;;;;;;;4990735;28;20443;-55
2021/08/04 08:26:18;;;;;;;7.60;3.60;;;;;;;;;;4991153;28;20247;-56
2021/08/04 08:28:43;;;;;;;12.55;3.45;;;;;;;;;;4990021;28;20184;-56
2021/08/04 08:31:09;;;;;;;6.07;3.65;;;;;;;;;;4989206;28;20204;-56
2021/08/04 08:33:34;;;;;;;12.13;4.00;;;;;;;;;;4980222;28;20206;-56
2021/08/04 08:35:59;;;;;;;14.90;4.00;;;;;;;;;;4991340;28;20185;-56
2021/08/04 08:38:24;;;;;;;9.43;3.77;;;;;;;;;;4974176;28;20554;-55
2021/08/04 08:40:49;;;;;;;4.78;3.17;;;;;;;;;;4993829;28;21129;-56
2021/08/04 08:43:16;;;;;;;4.18;3.45;;;;;;;;;;4986786;28;20717;-56
2021/08/04 08:45:41;;;;;;;4.82;3.10;;;;;;;;;;4987992;28;20510;-55
2021/08/04 08:48:07;;;;;;;4.17;2.87;;;;;;;;;;4981592;28;20216;-56
2021/08/04 08:50:32;;;;;;;4.57;3.13;;;;;;;;;;4989099;28;20500;-56
2021/08/04 08:52:58;;;;;;;4.57;3.33;;;;;;;;;;4976135;28;20176;-57
2021/08/04 08:55:24;;;;;;;3.60;3.20;;;;;;;;;;4986020;28;20187;-56
2021/08/04 08:57:49;;;;;;;7.70;3.30;;;;;;;;;;4952737;28;20210;-56
2021/08/04 09:00:14;;;;;;;8.80;3.85;;;;;;;;;;4982928;28;20207;-56
2021/08/04 09:02:41;;;;;;;4.65;3.38;;;;;;;;;;4986054;28;20311;-56
2021/08/04 09:05:07;;;;;;;5.35;3.78;;;;;;;;;;4986467;28;20207;-56
2021/08/04 09:07:33;;;;;;;5.10;3.47;;;;;;;;;;4982212;28;20226;-57
2021/08/04 09:09:58;;;;;;;3.53;3.13;;;;;;;;;;4986612;28;20243;-56
2021/08/04 09:12:24;;;;;;;7.90;3.83;;;;;;;;;;4988704;28;20850;-56
2021/08/04 09:14:49;;;;;;;4.55;3.97;;;;;;;;;;4989966;28;20183;-56
2021/08/04 09:17:15;;;;;;;4.85;3.90;;;;;;;;;;4988013;28;20224;-56
2021/08/04 09:19:48;;;;;;;4.82;4.35;;;;;;;;;;4983212;28;20180;-56
2021/08/04 09:22:13;;;;;;;26.38;5.10;;;;;;;;;;4990093;28;20254;-55
2021/08/04 09:24:57;;;;;;;6.88;3.75;;;;;;;;;;4974103;28;20180;-56
2021/08/04 09:27:38;;;;;;;5.53;3.45;;;;;;;;;;4988963;28;20207;-56
2021/08/04 09:30:04;;;;;;;4.10;3.70;;;;;;;;;;4979349;28;20239;-57
2021/08/04 09:32:31;;;;;;;5.50;3.90;;;;;;;;;;4984293;28;20184;-56
2021/08/04 09:34:57;;;;;;;5.68;4.18;;;;;;;;;;4982318;28;20238;-56
2021/08/04 09:37:22;;;;;;;4.45;3.85;;;;;;;;;;4989958;28;20196;-56
2021/08/04 09:39:47;;;;;;;4.63;4.22;;;;;;;;;;4984223;28;20771;-56
2021/08/04 09:42:13;;;;;;;4.60;3.85;;;;;;;;;;4988282;28;20212;-56
2021/08/04 09:44:54;;;;;;;5.00;4.50;;;;;;;;;;4988394;28;20209;-56
2021/08/04 09:47:19;;;;;;;5.25;4.20;;;;;;;;;;4981089;28;20208;-56
2021/08/04 09:49:54;;;;;;;4.80;3.95;;;;;;;;;;4987789;28;20227;-57
2021/08/04 09:52:19;;;;;;;8.77;5.30;;;;;;;;;;4988240;28;20191;-55
2021/08/04 09:54:44;;;;;;;4.90;4.17;;;;;;;;;;4969748;28;20185;-55
2021/08/04 09:57:10;;;;;;;5.90;5.40;;;;;;;;;;4991210;28;20442;-55
2021/08/04 09:59:35;;;;;;;5.40;4.90;;;;;;;;;;4988376;28;20195;-56
2021/08/04 10:02:02;;;;;;;5.22;4.72;;;;;;;;;;4990939;28;20650;-57
2021/08/04 10:04:27;;;;;;;4.75;4.22;;;;;;;;;;4992940;28;20656;-56
2021/08/04 10:07:13;;;;;;;4.60;4.20;;;;;;;;;;4990073;28;20254;-57
2021/08/04 10:09:38;;;;;;;4.38;3.97;;;;;;;;;;4979826;28;20204;-56
2021/08/04 10:12:04;;;;;;;12.30;4.13;;;;;;;;;;4989139;28;20188;-56
2021/08/04 10:14:30;;;;;;;8.38;3.95;;;;;;;;;;4990424;28;20580;-56
2021/08/04 10:16:55;;;;;;;4.15;3.80;;;;;;;;;;4989669;28;20180;-56
2021/08/04 10:19:23;;;;;;;4.40;3.42;;;;;;;;;;4991147;28;20180;-56
2021/08/04 10:21:50;;;;;;;4.15;3.75;;;;;;;;;;4987655;28;20267;-57
2021/08/04 10:24:16;;;;;;;4.38;3.55;;;;;;;;;;4985989;28;20664;-57
2021/08/04 10:26:41;;;;;;;5.32;3.72;;;;;;;;;;4991651;28;20222;-57
2021/08/04 10:29:07;;;;;;;4.80;3.90;;;;;;;;;;4986504;28;20275;-56
2021/08/04 10:31:33;;;;;;;4.18;3.85;;;;;;;;;;4990334;28;20578;-57
2021/08/04 10:33:58;;;;;;;8.38;3.80;;;;;;;;;;4990537;28;20184;-56
2021/08/04 10:36:28;;;;;;;3.40;3.00;;;;;;;;;;4989015;28;20641;-56
2021/08/04 10:38:57;;;;;;;4.97;3.30;;;;;;;;;;4987536;28;20231;-56
2021/08/04 10:41:26;;;;;;;5.78;3.25;;;;;;;;;;4988903;28;20200;-56
2021/08/04 10:43:52;;;;;;;3.20;2.90;;;;;;;;;;4990383;28;20180;-57
2021/08/04 10:46:29;;;;;;;3.63;3.38;;;;;;;;;;4987284;28;20227;-56
2021/08/04 10:49:03;;;;;;;3.97;3.67;;;;;;;;;;4990301;28;20180;-56
2021/08/04 10:51:29;;;;;;;3.90;3.58;;;;;;;;;;4982851;28;20214;-56
2021/08/04 10:54:00;;;;;;;3.92;3.50;;;;;;;;;;4990029;28;20175;-57
2021/08/04 10:56:31;;;;;;;6.00;3.92;;;;;;;;;;4989843;28;20180;-55
2021/08/04 10:59:19;;;;;;;5.28;3.75;;;;;;;;;;4981154;28;20585;-56
2021/08/04 11:01:45;;;;;;;3.92;3.35;;;;;;;;;;4978903;28;20283;-57
2021/08/04 11:04:11;;;;;;;4.72;3.67;;;;;;;;;;4985874;28;20271;-57
2021/08/04 11:06:54;;;;;;;3.65;3.35;;;;;;;;;;4989766;28;21091;-56
2021/08/04 11:09:20;;;;;;;4.05;3.65;;;;;;;;;;4990523;28;20176;-56
2021/08/04 11:11:55;;;;;;;4.18;3.63;;;;;;;;;;4986654;28;20203;-56
2021/08/04 11:14:36;;;;;;;4.45;4.05;;;;;;;;;;4988470;28;20203;-56
2021/08/04 11:17:02;;;;;;;4.10;3.80;;;;;;;;;;4989423;28;20270;-56
2021/08/04 11:19:36;;;;;;;5.63;3.40;;;;;;;;;;4985141;28;20275;-57
2021/08/04 11:22:22;;;;;;;4.10;3.72;;;;;;;;;;4982533;28;20216;-56
2021/08/04 11:24:54;;;;;;;4.60;3.47;;;;;;;;;;4972930;28;20565;-56
2021/08/04 11:27:20;;;;;;;6.25;3.70;;;;;;;;;;4990814;28;20258;-56
2021/08/04 11:29:46;;;;;;;7.60;3.55;;;;;;;;;;4988312;28;20588;-56
2021/08/04 11:32:15;;;;;;;4.15;3.42;;;;;;;;;;4987184;28;20266;-56
2021/08/04 11:34:40;;;;;;;3.60;3.10;;;;;;;;;;4986287;28;20172;-56
2021/08/04 11:37:06;;;;;;;5.03;3.53;;;;;;;;;;4988557;28;20526;-56
2021/08/04 11:39:31;;;;;;;3.43;3.13;;;;;;;;;;4983681;28;20462;-56
2021/08/04 11:41:56;;;;;;;4.00;2.95;;;;;;;;;;4988234;28;20963;-57
2021/08/04 11:44:26;;;;;;;3.42;3.05;;;;;;;;;;4987222;28;20832;-56
2021/08/04 11:47:02;;;;;;;3.17;2.92;;;;;;;;;;4985544;28;20199;-57
2021/08/04 11:49:32;;;;;;;3.40;3.00;;;;;;;;;;4985922;28;20186;-56
2021/08/04 11:52:03;;;;;;;3.03;2.78;;;;;;;;;;4988420;28;20306;-56
2021/08/04 11:54:29;;;;;;;2.65;2.45;;;;;;;;;;4991017;28;20182;-55
2021/08/04 11:56:54;;;;;;;2.70;2.50;;;;;;;;;;4988798;28;20272;-55
2021/08/04 11:59:19;;;;;;;3.30;2.83;;;;;;;;;;4989618;28;20839;-56
2021/08/04 12:01:58;;;;;;;3.85;2.72;;;;;;;;;;4985221;28;20201;-56
2021/08/04 12:04:23;;;;;;;3.72;2.80;;;;;;;;;;4989327;28;20227;-56
2021/08/04 12:06:55;;;;;;;3.15;2.20;;;;;;;;;;4975485;28;20204;-57
2021/08/04 12:09:22;;;;;;;5.90;2.60;;;;;;;;;;4986654;28;20218;-56
2021/08/04 12:11:48;;;;;;;5.05;2.88;;;;;;;;;;4988629;28;20202;-56
2021/08/04 12:14:15;;;;;;;3.95;2.50;;;;;;;;;;4988975;28;20206;-56
2021/08/04 12:16:45;;;;;;;2.90;2.55;;;;;;;;;;4989549;28;20548;-56
2021/08/04 12:19:10;;;;;;;4.13;2.60;;;;;;;;;;4986216;28;20187;-56
2021/08/04 12:21:36;;;;;;;3.15;2.85;;;;;;;;;;4986735;28;20200;-56
2021/08/04 12:24:02;;;;;;;5.63;2.92;;;;;;;;;;4988338;28;20319;-56
2021/08/04 12:26:27;;;;;;;3.10;2.90;;;;;;;;;;4988490;28;20212;-56
2021/08/04 12:28:52;;;;;;;4.18;3.30;;;;;;;;;;4973777;28;20180;-57
2021/08/04 12:31:17;;;;;;;3.22;2.88;;;;;;;;;;4989834;28;20251;-56
2021/08/04 12:33:56;;;;;;;3.88;2.70;;;;;;;;;;4989991;28;20569;-56
2021/08/04 12:36:24;;;;;;;4.05;2.88;;;;;;;;;;4988930;28;20206;-56
2021/08/04 12:38:53;;;;;;;6.60;2.88;;;;;;;;;;4991096;28;20231;-56
2021/08/04 12:41:22;;;;;;;4.60;2.72;;;;;;;;;;4983750;28;20243;-57
2021/08/04 12:43:48;;;;;;;3.10;2.80;;;;;;;;;;4985890;28;20684;-56
2021/08/04 12:46:13;;;;;;;5.13;2.45;;;;;;;;;;4973953;28;20184;-56
2021/08/04 12:48:45;;;;;;;3.55;2.30;;;;;;;;;;4989970;28;20247;-54
2021/08/04 12:51:11;;;;;;;3.60;2.50;;;;;;;;;;4982622;28;20230;-57
2021/08/04 12:53:37;;;;;;;2.67;2.28;;;;;;;;;;4984844;28;20184;-56
2021/08/04 12:56:10;;;;;;;2.22;2.03;;;;;;;;;;4978520;28;20192;-56
2021/08/04 12:58:54;;;;;;;3.58;2.20;;;;;;;;;;4974478;28;20227;-56
2021/08/04 13:01:20;;;;;;;2.67;2.35;;;;;;;;;;4988889;28;20207;-56
2021/08/04 13:03:46;;;;;;;2.45;2.25;;;;;;;;;;4982277;28;20202;-56
2021/08/04 13:06:11;;;;;;;3.00;1.80;;;;;;;;;;4987548;28;20184;-56
2021/08/04 13:08:37;;;;;;;2.15;2.00;;;;;;;;;;4987979;28;20223;-55
2021/08/04 13:11:02;;;;;;;2.35;2.10;;;;;;;;;;4986650;28;20241;-56
2021/08/04 13:13:28;;;;;;;2.17;2.03;;;;;;;;;;4991500;28;20179;-56
2021/08/04 13:15:53;;;;;;;2.10;1.92;;;;;;;;;;4982962;28;20218;-56
2021/08/04 13:18:19;;;;;;;4.18;1.67;;;;;;;;;;4988290;28;20331;-57
2021/08/04 13:20:44;;;;;;;2.42;2.22;;;;;;;;;;4989139;28;20858;-56
2021/08/04 13:23:11;;;;;;;2.30;1.80;;;;;;;;;;4986815;28;20731;-55
2021/08/04 13:25:45;;;;;;;2.55;2.13;;;;;;;;;;4988946;28;20187;-56
2021/08/04 13:28:12;;;;;;;2.47;2.00;;;;;;;;;;4986457;28;20230;-57
2021/08/04 13:30:39;;;;;;;2.20;2.00;;;;;;;;;;4987767;28;20649;-56
2021/08/04 13:33:05;;;;;;;2.63;2.42;;;;;;;;;;4986911;28;20177;-56
2021/08/04 13:35:32;;;;;;;3.63;2.22;;;;;;;;;;4993449;28;20264;-56
2021/08/04 13:37:57;;;;;;;3.05;2.28;;;;;;;;;;4992807;28;20179;-56
2021/08/04 13:40:22;;;;;;;2.65;2.38;;;;;;;;;;4990069;28;20202;-56
2021/08/04 13:42:48;;;;;;;2.35;2.15;;;;;;;;;;4992096;28;20215;-56
2021/08/04 13:45:15;;;;;;;5.60;1.90;;;;;;;;;;4990867;28;20206;-56
2021/08/04 13:47:40;;;;;;;1.80;1.70;;;;;;;;;;4990959;28;20228;-56
2021/08/04 13:50:06;;;;;;;1.65;1.50;;;;;;;;;;4992862;28;20737;-56
2021/08/04 13:52:32;;;;;;;2.85;1.58;;;;;;;;;;4973273;28;20199;-56
2021/08/04 13:54:57;;;;;;;2.00;1.70;;;;;;;;;;4989728;28;20180;-57
2021/08/04 13:57:22;;;;;;;2.25;1.58;;;;;;;;;;4988936;28;20184;-56
2021/08/04 13:59:47;;;;;;;1.63;1.53;;;;;;;;;;4989396;28;20789;-56
2021/08/04 14:02:13;;;;;;;4.07;1.80;;;;;;;;;;4990036;28;20481;-56
2021/08/04 14:04:40;;;;;;;2.78;2.00;;;;;;;;;;4973683;28;20615;-55
2021/08/04 14:07:06;;;;;;;1.80;1.70;;;;;;;;;;4987486;28;20617;-54
2021/08/04 14:09:31;;;;;;;2.17;1.98;;;;;;;;;;4978541;28;20180;-55
2021/08/04 14:11:56;;;;;;;2.03;1.80;;;;;;;;;;4985969;28;20204;-56
2021/08/04 14:14:21;;;;;;;1.90;1.80;;;;;;;;;;4958727;28;20180;-56
2021/08/04 14:16:49;;;;;;;2.00;1.90;;;;;;;;;;4987581;28;20223;-56
2021/08/04 14:19:14;;;;;;;2.00;1.80;;;;;;;;;;4988306;28;20441;-57
2021/08/04 14:21:39;;;;;;;3.17;2.05;;;;;;;;;;4997020;28;20203;-57
2021/08/04 14:24:04;;;;;;;2.30;1.88;;;;;;;;;;4990722;28;20188;-57
2021/08/04 14:26:29;;;;;;;2.20;2.00;;;;;;;;;;4988889;28;20704;-57
2021/08/04 14:28:55;;;;;;;2.72;2.00;;;;;;;;;;4990269;28;20710;-57
2021/08/04 14:31:20;;;;;;;2.40;2.20;;;;;;;;;;4991291;28;20208;-56
2021/08/04 14:33:45;;;;;;;2.67;2.17;;;;;;;;;;4992510;28;21276;-55
2021/08/04 14:36:10;;;;;;;2.70;2.30;;;;;;;;;;4980978;28;20271;-57
2021/08/04 14:38:35;;;;;;;4.40;2.00;;;;;;;;;;4988862;28;20192;-55